createdAt,value
2023-11-26T00:37:36.951Z,1.80
2023-11-26T00:40:06.771Z,1.90
2023-11-26T00:42:33.736Z,1.90
2023-11-26T00:45:00.633Z,2.00
2023-11-26T00:47:27.560Z,2.00
2023-11-26T00:49:55.936Z,2.00
2023-11-26T00:52:22.768Z,2.00
2023-11-26T00:54:49.519Z,2.00
2023-11-26T00:57:16.271Z,2.00
2023-11-26T00:59:43.322Z,2.00
2023-11-26T01:02:10.999Z,2.00
2023-11-26T01:04:37.865Z,2.10
2023-11-26T01:07:06.923Z,2.10
2023-11-26T01:09:33.725Z,2.10
2023-11-26T01:12:00.479Z,2.10
2023-11-26T01:14:27.365Z,2.10
2023-11-26T01:16:54.321Z,2.20
2023-11-26T01:19:21.381Z,2.20
2023-11-26T01:21:48.220Z,2.20
2023-11-26T01:24:15.910Z,2.20
2023-11-26T01:26:42.748Z,2.20
2023-11-26T01:29:09.542Z,2.20
2023-11-26T01:31:36.486Z,2.10
2023-11-26T01:34:03.565Z,2.00
2023-11-26T01:36:30.441Z,2.00
2023-11-26T01:38:57.272Z,2.10
2023-11-26T01:41:24.084Z,2.10
2023-11-26T01:43:51.207Z,2.00
2023-11-26T01:46:18.887Z,2.10
2023-11-26T01:48:45.902Z,2.00
2023-11-26T01:51:14.783Z,2.00
2023-11-26T01:53:46.919Z,2.00
2023-11-26T01:56:15.569Z,2.00
2023-11-26T01:58:42.610Z,1.90
2023-11-26T02:01:11.766Z,1.90
2023-11-26T02:03:38.648Z,1.90
2023-11-26T02:06:06.118Z,1.90
2023-11-26T02:08:33.793Z,1.90
2023-11-26T02:11:00.951Z,1.90
2023-11-26T02:13:30.258Z,1.80
2023-11-26T02:15:57.473Z,1.80
2023-11-26T02:18:26.351Z,1.80
2023-11-26T02:20:53.336Z,1.80
2023-11-26T02:23:20.140Z,1.80
2023-11-26T02:25:46.876Z,1.80
2023-11-26T02:28:13.704Z,1.70
2023-11-26T02:30:40.663Z,1.50
2023-11-26T02:33:08.379Z,1.50
2023-11-26T02:35:35.212Z,1.30
2023-11-26T02:38:03.606Z,1.40
2023-11-26T02:40:31.370Z,1.50
2023-11-26T02:43:00.516Z,1.40
2023-11-26T02:45:27.419Z,1.40
2023-11-26T02:47:54.379Z,1.40
2023-11-26T02:50:21.279Z,1.40
2023-11-26T02:52:48.032Z,1.40
2023-11-26T02:55:15.274Z,1.30
2023-11-26T02:57:42.025Z,1.30
2023-11-26T03:00:17.067Z,1.30
2023-11-26T03:02:45.844Z,1.30
2023-11-26T03:05:19.423Z,1.40
2023-11-26T03:07:59.137Z,1.30
2023-11-26T03:10:44.457Z,1.30
2023-11-26T03:13:14.267Z,1.30
2023-11-26T03:15:42.307Z,1.30
2023-11-26T03:18:11.786Z,1.20
2023-11-26T03:20:40.898Z,1.20
2023-11-26T03:23:10.486Z,1.20
2023-11-26T03:25:37.828Z,1.20
2023-11-26T03:28:05.803Z,1.10
2023-11-26T03:30:33.476Z,1.10
2023-11-26T03:33:00.298Z,1.10
2023-11-26T03:35:27.991Z,1.10
2023-11-26T03:37:55.695Z,1.20
2023-11-26T03:40:22.787Z,1.20
2023-11-26T03:42:49.606Z,1.30
2023-11-26T03:45:17.102Z,1.30
2023-11-26T03:47:43.998Z,1.20
2023-11-26T03:50:14.005Z,1.30
2023-11-26T03:52:41.406Z,1.30
2023-11-26T03:55:09.945Z,1.20
2023-11-26T03:57:37.964Z,1.30
2023-11-26T04:00:10.134Z,1.20
2023-11-26T04:02:37.829Z,1.20
2023-11-26T04:05:05.418Z,1.20
2023-11-26T04:07:32.301Z,1.20
2023-11-26T04:09:59.122Z,1.10
2023-11-26T04:12:25.864Z,1.10
2023-11-26T04:15:07.670Z,1.10
2023-11-26T04:17:35.831Z,1.10
2023-11-26T04:20:03.551Z,1.20
2023-11-26T04:22:30.287Z,1.20
2023-11-26T04:24:57.016Z,1.20
2023-11-26T04:27:23.770Z,1.30
2023-11-26T04:29:50.580Z,1.30
2023-11-26T04:32:17.949Z,1.30
2023-11-26T04:34:45.365Z,1.30
2023-11-26T04:37:15.611Z,1.20
2023-11-26T04:39:42.582Z,1.30
2023-11-26T04:42:09.337Z,1.40
2023-11-26T04:44:36.148Z,1.40
2023-11-26T04:47:03.299Z,1.40
2023-11-26T04:49:29.985Z,1.30
2023-11-26T04:51:56.673Z,1.30
2023-11-26T04:54:23.415Z,1.20
2023-11-26T04:56:50.300Z,1.20
2023-11-26T04:59:17.852Z,1.10
2023-11-26T05:01:45.631Z,1.10
2023-11-26T05:04:17.030Z,1.00
2023-11-26T05:06:44.102Z,1.00
2023-11-26T05:09:15.022Z,1.00
2023-11-26T05:11:46.183Z,1.00
2023-11-26T05:14:13.919Z,1.10
2023-11-26T05:16:42.162Z,1.10
2023-11-26T05:19:08.939Z,1.10
2023-11-26T05:21:35.657Z,1.10
2023-11-26T05:24:05.684Z,1.10
2023-11-26T05:26:32.889Z,1.10
2023-11-26T05:28:59.809Z,1.10
2023-11-26T05:31:26.529Z,1.10
2023-11-26T05:33:53.945Z,1.10
2023-11-26T05:36:20.920Z,1.10
2023-11-26T05:38:47.919Z,1.00
2023-11-26T05:41:14.866Z,1.10
2023-11-26T05:43:41.748Z,1.10
2023-11-26T05:46:09.069Z,1.00
2023-11-26T05:48:36.231Z,1.00
2023-11-26T05:51:06.160Z,1.00
2023-11-26T05:53:33.998Z,0.90
2023-11-26T05:56:00.954Z,0.90
2023-11-26T05:58:27.810Z,0.90
2023-11-26T06:00:54.925Z,0.80
2023-11-26T06:03:22.994Z,0.80
2023-11-26T06:05:50.053Z,0.80
2023-11-26T06:08:17.362Z,0.80
2023-11-26T06:10:44.155Z,0.80
2023-11-26T06:13:10.890Z,0.80
2023-11-26T06:15:37.716Z,0.80
2023-11-26T06:18:04.719Z,0.70
2023-11-26T06:20:31.436Z,0.80
2023-11-26T06:22:58.211Z,0.80
2023-11-26T06:25:25.478Z,0.90
2023-11-26T06:27:52.382Z,0.90
2023-11-26T06:30:19.529Z,0.90
2023-11-26T06:32:46.450Z,0.90
2023-11-26T06:35:13.436Z,0.80
2023-11-26T06:37:40.492Z,0.90
2023-11-26T06:40:09.948Z,0.90
2023-11-26T06:42:40.473Z,1.00
2023-11-26T06:45:09.289Z,1.00
2023-11-26T06:47:36.857Z,1.10
2023-11-26T06:50:03.961Z,1.20
2023-11-26T06:52:31.385Z,1.20
2023-11-26T06:54:58.453Z,1.30
2023-11-26T06:57:25.250Z,1.30
2023-11-26T09:34:45.626Z,2.80
2023-11-26T09:37:12.495Z,2.80
2023-11-26T09:39:39.238Z,2.70
2023-11-26T09:42:06.118Z,2.70
2023-11-26T09:44:32.922Z,2.80
2023-11-26T09:46:59.662Z,2.80
2023-11-26T09:49:26.516Z,2.90
2023-11-26T09:52:02.674Z,3.10
2023-11-26T09:54:30.864Z,3.20
2023-11-26T09:57:00.275Z,3.20
2023-11-26T09:59:29.383Z,3.30
2023-11-26T10:01:56.481Z,3.30
2023-11-26T10:04:23.909Z,3.40
2023-11-26T10:06:57.957Z,3.60
2023-11-26T10:09:24.829Z,3.60
2023-11-26T10:11:52.474Z,3.70
2023-11-26T10:14:22.935Z,3.70
2023-11-26T10:16:49.701Z,3.50
2023-11-26T10:19:28.130Z,3.60
2023-11-26T10:21:59.290Z,3.60
2023-11-26T10:24:28.732Z,3.60
2023-11-26T10:26:58.855Z,3.60
2023-11-26T10:29:31.021Z,3.60
2023-11-26T10:32:07.484Z,3.70
2023-11-26T10:34:38.631Z,3.70
2023-11-26T10:37:21.718Z,3.60
2023-11-26T10:39:57.374Z,3.60
2023-11-26T10:42:28.383Z,3.50
2023-11-26T10:44:57.300Z,3.60
2023-11-26T10:47:27.250Z,3.70
2023-11-26T10:50:00.790Z,3.70
2023-11-26T10:52:53.956Z,3.80
2023-11-26T10:55:33.293Z,3.90
2023-11-26T10:58:18.620Z,4.00
2023-11-26T11:00:53.942Z,3.80
2023-11-26T11:03:21.199Z,3.90
2023-11-26T11:05:48.854Z,4.00
2023-11-26T11:08:17.544Z,3.80
2023-11-26T11:10:59.965Z,4.10
2023-11-26T11:13:28.092Z,4.00
2023-11-26T11:15:55.425Z,4.20
2023-11-26T11:18:34.108Z,4.20
2023-11-26T11:21:07.405Z,4.20
2023-11-26T11:23:42.926Z,4.10
2023-11-26T11:26:11.362Z,4.10
2023-11-26T11:28:48.751Z,4.20
2023-11-26T11:31:21.099Z,4.20
2023-11-26T11:34:00.635Z,4.10
2023-11-26T11:36:42.833Z,3.70
2023-11-26T11:39:10.513Z,3.90
2023-11-26T11:41:59.569Z,4.10
2023-11-26T11:44:36.640Z,4.20
2023-11-26T11:47:04.519Z,4.30
2023-11-26T11:49:46.926Z,4.30
2023-11-26T11:52:14.227Z,4.00
2023-11-26T11:54:55.649Z,3.90
2023-11-26T11:57:29.859Z,4.10
2023-11-26T11:59:57.104Z,4.20
2023-11-26T12:02:27.310Z,4.20
2023-11-26T12:04:55.246Z,4.20
2023-11-26T12:07:31.932Z,4.00
2023-11-26T12:10:02.426Z,4.00
2023-11-26T12:12:29.537Z,4.00
2023-11-26T12:14:56.290Z,4.10
2023-11-26T12:17:23.052Z,4.10
2023-11-26T12:19:51.014Z,4.10
2023-11-26T12:22:18.262Z,4.10
2023-11-26T12:24:45.110Z,4.00
2023-11-26T12:27:24.696Z,3.90
2023-11-26T12:29:51.619Z,4.00
2023-11-26T12:32:26.974Z,4.00
2023-11-26T12:34:55.610Z,4.00
2023-11-26T12:37:22.635Z,3.90
2023-11-26T12:39:50.984Z,3.80
2023-11-26T12:42:18.762Z,3.70
2023-11-26T12:44:45.514Z,3.60
2023-11-26T12:47:13.010Z,3.70
2023-11-26T12:49:41.239Z,3.70
2023-11-26T12:52:09.270Z,3.70
2023-11-26T12:54:37.210Z,3.70
2023-11-26T12:57:07.522Z,3.70
2023-11-26T12:59:48.065Z,3.60
2023-11-26T13:02:15.462Z,3.80
2023-11-26T13:04:42.455Z,3.80
2023-11-26T13:07:10.130Z,3.80
2023-11-26T13:09:52.991Z,3.80
2023-11-26T13:12:20.285Z,3.70
2023-11-26T13:14:47.430Z,4.00
2023-11-26T13:17:16.627Z,4.60
2023-11-26T13:19:44.208Z,5.00
2023-11-26T13:22:13.346Z,4.90
2023-11-26T13:24:40.118Z,4.50
2023-11-26T13:27:09.278Z,4.40
2023-11-26T13:29:36.152Z,4.40
2023-11-26T13:32:02.900Z,4.30
2023-11-26T13:34:29.722Z,4.30
2023-11-26T13:36:56.570Z,4.10
2023-11-26T13:39:23.428Z,4.10
2023-11-26T13:41:50.284Z,4.10
2023-11-26T13:44:17.069Z,4.20
2023-11-26T13:46:43.909Z,4.00
2023-11-26T13:49:12.984Z,4.10
2023-11-26T13:51:39.990Z,4.00
2023-11-26T13:54:06.901Z,4.00
2023-11-26T13:56:33.614Z,4.00
2023-11-26T13:59:00.342Z,4.20
2023-11-26T14:01:27.193Z,4.50
2023-11-26T14:03:56.963Z,4.90
2023-11-26T14:06:27.669Z,5.80
2023-11-26T14:08:54.435Z,7.50
2023-11-26T14:11:21.436Z,8.50
2023-11-26T14:13:48.150Z,8.10
2023-11-26T14:16:18.001Z,7.20
2023-11-26T14:18:45.331Z,6.50
2023-11-26T14:21:13.295Z,5.80
2023-11-26T14:23:40.393Z,5.50
2023-11-26T14:26:07.960Z,5.20
2023-11-26T14:28:34.799Z,5.00
2023-11-26T14:31:02.380Z,4.80
2023-11-26T14:33:31.335Z,4.70
2023-11-26T14:35:58.167Z,4.60
2023-11-26T14:38:24.911Z,4.50
2023-11-26T14:40:51.710Z,4.30
2023-11-26T14:43:18.595Z,4.20
2023-11-26T14:45:45.378Z,4.10
2023-11-26T14:48:12.225Z,4.10
2023-11-26T14:50:39.023Z,4.10
2023-11-26T14:53:05.762Z,4.10
2023-11-26T14:55:32.497Z,4.10
2023-11-26T14:57:59.239Z,4.10
2023-11-26T15:00:26.115Z,4.10
2023-11-26T15:02:53.015Z,4.10
2023-11-26T15:05:19.845Z,4.20
2023-11-26T15:07:46.547Z,4.10
2023-11-26T15:10:13.314Z,4.10
2023-11-26T15:12:40.264Z,3.90
2023-11-26T15:15:10.411Z,3.70
2023-11-26T15:17:38.484Z,3.30
2023-11-26T15:20:07.683Z,3.40
2023-11-26T15:22:34.819Z,3.50
2023-11-26T15:25:02.754Z,3.40
2023-11-26T15:27:29.664Z,3.50
2023-11-26T15:29:56.418Z,3.50
2023-11-26T15:32:23.160Z,3.30
2023-11-26T15:34:49.988Z,3.30
2023-11-26T15:37:16.789Z,3.30
2023-11-26T15:39:43.590Z,3.30
2023-11-26T15:42:11.023Z,3.40
2023-11-26T15:44:38.494Z,3.50
2023-11-26T15:47:07.696Z,3.20
2023-11-26T15:49:38.543Z,3.30
2023-11-26T15:52:06.251Z,3.20
2023-11-26T15:54:33.134Z,3.20
2023-11-26T15:56:59.882Z,3.20
2023-11-26T15:59:26.601Z,3.20
2023-11-26T16:01:53.457Z,3.20
2023-11-26T16:04:20.594Z,3.10
2023-11-26T16:06:47.843Z,3.10
2023-11-26T16:09:14.666Z,3.10
2023-11-26T16:11:45.468Z,3.10
2023-11-26T16:14:12.959Z,3.10
2023-11-26T16:16:39.670Z,3.10
2023-11-26T16:19:06.554Z,3.10
2023-11-26T16:21:34.726Z,3.20
2023-11-26T16:24:02.940Z,3.20
2023-11-26T16:26:30.409Z,3.20
2023-11-26T16:28:57.185Z,3.20
2023-11-26T16:31:24.038Z,3.20
2023-11-26T16:33:54.161Z,3.20
2023-11-26T16:36:23.461Z,3.20
2023-11-26T16:38:50.637Z,3.20
2023-11-26T16:41:20.097Z,3.10
2023-11-26T16:43:49.093Z,3.10
2023-11-26T16:46:17.645Z,3.10
2023-11-26T16:48:46.017Z,3.10
2023-11-26T16:51:13.911Z,3.10
2023-11-26T16:53:41.175Z,3.10
2023-11-26T16:56:10.214Z,3.10
2023-11-26T16:58:37.751Z,3.20
2023-11-26T17:01:07.027Z,3.10
2023-11-26T17:03:34.772Z,3.20
2023-11-26T17:06:04.019Z,3.10
2023-11-26T17:08:30.995Z,3.20
2023-11-26T17:10:58.767Z,3.20
2023-11-26T17:13:27.039Z,3.20
2023-11-26T17:15:54.255Z,3.20
2023-11-26T17:18:21.945Z,3.20
2023-11-26T17:20:48.987Z,3.10
2023-11-26T17:23:17.271Z,3.00
2023-11-26T17:25:47.620Z,3.00
2023-11-26T17:28:15.865Z,3.00
2023-11-26T17:30:43.624Z,3.00
2023-11-26T17:33:12.306Z,3.00
2023-11-26T17:35:39.184Z,2.90
2023-11-26T17:38:08.501Z,2.90
2023-11-26T17:40:36.204Z,2.90
2023-11-26T17:43:03.704Z,2.80
2023-11-26T17:45:30.816Z,2.80
2023-11-26T17:47:58.184Z,2.80
2023-11-26T17:50:25.031Z,2.80
2023-11-26T17:52:56.747Z,2.80
2023-11-26T17:55:32.456Z,2.80
2023-11-26T17:58:00.261Z,2.80
2023-11-26T18:00:27.129Z,2.80
2023-11-26T18:02:54.658Z,2.80
2023-11-26T18:05:21.479Z,2.80
2023-11-26T18:07:48.534Z,2.80
2023-11-26T18:10:15.312Z,2.70
2023-11-26T18:12:44.672Z,2.70
2023-11-26T18:15:13.704Z,2.70
2023-11-26T18:17:41.682Z,2.70
2023-11-26T18:20:09.055Z,2.80
2023-11-26T18:22:35.822Z,2.80
2023-11-26T18:25:02.862Z,2.80
2023-11-26T18:27:30.341Z,2.90
2023-11-26T18:29:57.198Z,2.80
2023-11-26T18:32:24.020Z,2.80
2023-11-26T18:34:51.744Z,2.70
2023-11-26T18:37:19.248Z,2.60
2023-11-26T18:39:46.248Z,2.70
2023-11-26T18:42:14.773Z,2.80
2023-11-26T18:44:43.354Z,2.80
2023-11-26T18:47:11.234Z,2.80
2023-11-26T18:49:38.505Z,2.80
2023-11-26T18:52:08.195Z,2.90
2023-11-26T18:54:35.046Z,2.70
2023-11-26T18:57:01.782Z,2.70
2023-11-26T18:59:28.734Z,2.80
2023-11-26T19:01:55.715Z,2.80
2023-11-26T19:04:22.596Z,2.70
2023-11-26T19:06:51.324Z,2.70
2023-11-26T19:09:18.195Z,2.70
2023-11-26T19:11:47.472Z,2.70
2023-11-26T19:14:14.253Z,2.70
2023-11-26T19:16:40.988Z,2.60
2023-11-26T19:19:07.746Z,2.60
2023-11-26T19:21:35.267Z,2.70
2023-11-26T19:24:02.068Z,2.60
2023-11-26T19:26:28.870Z,2.60
2023-11-26T19:28:55.702Z,2.50
2023-11-26T19:31:25.411Z,2.50
2023-11-26T19:33:53.102Z,2.50
2023-11-26T19:36:24.370Z,2.50
2023-11-26T19:38:52.281Z,2.50
2023-11-26T19:41:20.109Z,2.50
2023-11-26T19:43:47.405Z,2.50
2023-11-26T19:46:16.394Z,2.60
2023-11-26T19:48:47.442Z,2.60
2023-11-26T19:51:18.610Z,2.60
2023-11-26T19:53:46.219Z,2.60
2023-11-26T19:56:15.322Z,2.40
2023-11-26T19:58:43.547Z,2.40
2023-11-26T20:01:14.505Z,2.40
2023-11-26T20:03:42.054Z,2.40
2023-11-26T20:06:09.509Z,2.40
2023-11-26T20:08:36.536Z,2.40
2023-11-26T20:11:04.769Z,2.40
2023-11-26T20:13:32.878Z,2.50
2023-11-26T20:16:00.012Z,2.40
2023-11-26T20:18:26.851Z,2.30
2023-11-26T20:20:54.360Z,2.30
2023-11-26T20:23:22.705Z,2.30
2023-11-26T20:25:52.291Z,2.20
2023-11-26T20:28:21.947Z,2.20
2023-11-26T20:30:49.848Z,2.30
2023-11-26T20:33:18.885Z,2.30
2023-11-26T20:35:45.921Z,2.20
2023-11-26T20:38:12.906Z,2.20
2023-11-26T20:40:40.056Z,2.30
2023-11-26T20:43:06.973Z,2.10
2023-11-26T20:45:34.276Z,2.10
2023-11-26T20:48:01.533Z,2.20
2023-11-26T20:50:28.425Z,2.30
2023-11-26T20:52:55.238Z,2.20
2023-11-26T20:55:22.295Z,2.10
2023-11-26T20:57:49.078Z,2.20
2023-11-26T21:00:16.260Z,2.20
2023-11-26T21:02:43.309Z,2.20
2023-11-26T21:05:10.402Z,2.20
2023-11-26T21:07:37.856Z,2.10
2023-11-26T21:10:09.180Z,2.20
2023-11-26T21:12:36.332Z,2.30
2023-11-26T21:15:05.607Z,2.30
2023-11-26T21:17:36.179Z,2.30
2023-11-26T21:20:04.002Z,2.30
2023-11-26T21:22:31.507Z,2.20
2023-11-26T21:24:58.285Z,2.20
2023-11-26T21:27:25.055Z,2.10
2023-11-26T21:29:52.009Z,2.10
2023-11-26T21:32:19.375Z,2.20
2023-11-26T21:34:46.419Z,2.10
2023-11-26T21:37:14.438Z,2.20
2023-11-26T21:39:45.036Z,2.30
2023-11-26T21:42:15.656Z,2.10
2023-11-26T21:44:42.624Z,2.10
2023-11-26T21:47:09.640Z,2.10
2023-11-26T21:49:36.561Z,1.90
2023-11-26T21:52:04.560Z,1.80
2023-11-26T21:54:31.364Z,1.70
2023-11-26T21:56:58.254Z,1.70
2023-11-26T21:59:25.100Z,1.80
2023-11-26T22:01:52.068Z,1.80
2023-11-26T22:04:19.192Z,1.90
2023-11-26T22:06:48.795Z,1.70
2023-11-26T22:09:15.708Z,1.70
2023-11-26T22:11:42.621Z,1.60
2023-11-26T22:14:09.495Z,1.70
2023-11-26T22:16:37.974Z,1.70
2023-11-26T22:19:06.584Z,1.60
2023-11-26T22:21:33.838Z,1.60
2023-11-26T22:24:03.536Z,1.70
2023-11-26T22:26:31.767Z,1.70
2023-11-26T22:28:58.497Z,1.60
2023-11-26T22:31:25.539Z,1.60
2023-11-26T22:33:52.460Z,1.60
2023-11-26T22:36:23.411Z,1.60
2023-11-26T22:38:50.868Z,1.60
2023-11-26T22:41:25.830Z,1.60
2023-11-26T22:43:53.622Z,1.60
2023-11-26T22:46:29.503Z,1.50
2023-11-26T22:49:00.522Z,1.40
2023-11-26T22:51:32.210Z,1.30
2023-11-26T22:53:59.149Z,1.20
2023-11-26T22:56:26.234Z,1.20
2023-11-26T22:58:56.305Z,1.20
2023-11-26T23:01:24.085Z,1.20
2023-11-26T23:03:51.705Z,1.30
2023-11-26T23:06:18.681Z,1.30
2023-11-26T23:08:45.620Z,1.50
2023-11-26T23:11:12.350Z,1.50
2023-11-26T23:13:39.040Z,1.60
2023-11-26T23:16:07.550Z,1.70
2023-11-26T23:18:37.781Z,1.80
2023-11-26T23:21:05.755Z,1.80
2023-11-26T23:23:41.797Z,1.80
2023-11-26T23:26:13.842Z,1.70
2023-11-26T23:28:40.634Z,1.70
2023-11-26T23:31:13.213Z,1.80
2023-11-26T23:33:40.048Z,1.90
2023-11-26T23:36:07.292Z,1.90
2023-11-26T23:38:34.007Z,1.70
2023-11-26T23:41:00.732Z,1.60
2023-11-26T23:43:27.550Z,1.50
2023-11-26T23:45:54.536Z,1.70
2023-11-26T23:48:21.329Z,1.80
2023-11-26T23:50:48.116Z,1.90
2023-11-26T23:53:14.899Z,1.60
2023-11-26T23:55:41.600Z,1.80
2023-11-26T23:58:08.907Z,1.70
